Time;durP1;ratioP1;P1;durP2;ratioP2;P2;SDS_P1;SDS_P2;PMS_P1;PMS_P2;Temp;Humidity;BMP_temperature;BMP_pressure;BME280_temperature;BME280_humidity;BME280_pressure;Samples;Min_cycle;Max_cycle;Signal;HPM_P1;HPM_P2
2022/12/06 00:01:38;;;;;;;8.80;3.67;;;5.90;99.90;;;;;;5023294;28;20028;-45
2022/12/06 00:04:10;;;;;;;7.65;3.53;;;4.50;99.90;;;;;;5026430;28;20465;-44
2022/12/06 00:06:47;;;;;;;11.27;4.07;;;5.70;99.90;;;;;;5010223;28;20033;-41
2022/12/06 00:09:20;;;;;;;12.27;3.63;;;5.90;99.90;;;;;;5011619;28;20022;-46
2022/12/06 00:11:46;;;;;;;12.02;3.72;;;6.00;99.90;;;;;;5014222;28;20022;-54
2022/12/06 00:14:12;;;;;;;7.43;3.20;;;6.00;99.90;;;;;;5014149;28;20036;-46
2022/12/06 00:16:38;;;;;;;8.95;3.17;;;3.50;99.90;;;;;;5028236;28;20393;-44
2022/12/06 00:19:04;;;;;;;10.20;3.88;;;5.80;99.90;;;;;;5031802;28;20056;-48
2022/12/06 00:21:35;;;;;;;7.18;3.58;;;5.70;99.90;;;;;;5031847;28;20425;-43
2022/12/06 00:24:06;;;;;;;13.15;3.35;;;5.90;99.90;;;;;;5031337;28;20024;-49
2022/12/06 00:26:35;;;;;;;7.90;3.47;;;6.00;99.90;;;;;;5031905;28;20203;-52
2022/12/06 00:29:01;;;;;;;9.63;3.30;;;6.00;99.90;;;;;;5030682;28;20388;-53
2022/12/06 00:31:29;;;;;;;9.82;3.88;;;6.10;99.90;;;;;;5031951;28;20020;-45
2022/12/06 00:33:55;;;;;;;10.50;4.63;;;6.00;99.90;;;;;;5031990;28;20480;-45
2022/12/06 00:36:33;;;;;;;7.32;3.22;;;7.10;99.90;;;;;;5032081;28;20116;-44
2022/12/06 00:39:04;;;;;;;10.68;3.47;;;6.20;99.90;;;;;;5030471;28;20369;-48
2022/12/06 00:41:30;;;;;;;8.60;3.75;;;6.80;99.90;;;;;;5020497;28;20017;-49
2022/12/06 00:43:55;;;;;;;8.63;3.30;;;6.30;99.90;;;;;;5031859;28;20028;-46
2022/12/06 00:46:29;;;;;;;7.18;3.55;;;6.00;99.90;;;;;;5031418;28;20057;-40
2022/12/06 00:48:56;;;;;;;10.00;3.70;;;7.80;99.90;;;;;;5030168;28;20533;-43
2022/12/06 00:51:23;;;;;;;7.63;3.42;;;6.40;99.90;;;;;;5031614;28;20488;-41
2022/12/06 00:53:49;;;;;;;9.85;3.78;;;6.90;99.90;;;;;;5031746;28;20029;-44
2022/12/06 00:56:16;;;;;;;13.68;3.67;;;6.60;99.90;;;;;;5031638;28;20641;-41
2022/12/06 00:58:42;;;;;;;10.02;3.20;;;6.50;99.90;;;;;;5031576;28;20151;-46
2022/12/06 01:01:14;;;;;;;7.07;3.30;;;6.50;99.90;;;;;;5031646;28;20029;-51
2022/12/06 01:03:41;;;;;;;7.90;3.45;;;6.20;99.90;;;;;;5031528;28;20036;-43
2022/12/06 01:06:10;;;;;;;6.55;3.42;;;6.70;99.90;;;;;;5031636;28;20037;-47
2022/12/06 01:08:37;;;;;;;7.13;3.40;;;6.20;99.90;;;;;;5031227;28;20029;-47
2022/12/06 01:11:03;;;;;;;8.48;3.83;;;6.20;99.90;;;;;;5031528;28;20029;-38
2022/12/06 01:13:29;;;;;;;9.10;3.25;;;4.40;99.90;;;;;;5031206;28;20024;-43
2022/12/06 01:15:56;;;;;;;9.38;3.05;;;6.50;99.90;;;;;;5031038;28;20030;-39
2022/12/06 01:18:21;;;;;;;9.38;3.22;;;4.00;99.90;;;;;;5031263;28;20029;-43
2022/12/06 01:20:47;;;;;;;9.43;3.63;;;6.20;99.90;;;;;;5017296;28;20041;-42
2022/12/06 01:23:14;;;;;;;7.60;3.30;;;6.10;99.90;;;;;;5031187;28;20018;-40
2022/12/06 01:25:49;;;;;;;7.63;3.03;;;6.10;99.90;;;;;;5030977;28;20036;-43
2022/12/06 01:28:14;;;;;;;8.68;3.20;;;5.30;99.90;;;;;;5031275;28;20021;-53
2022/12/06 01:30:40;;;;;;;6.90;2.88;;;6.00;99.90;;;;;;5030990;28;20425;-45
2022/12/06 01:33:06;;;;;;;9.32;3.60;;;6.00;99.90;;;;;;5031079;28;20397;-42
2022/12/06 01:35:31;;;;;;;8.57;3.85;;;5.90;99.90;;;;;;5030491;28;20017;-43
2022/12/06 01:37:57;;;;;;;7.45;3.40;;;5.80;99.90;;;;;;5030785;28;20027;-43
2022/12/06 01:40:22;;;;;;;7.80;3.28;;;6.00;99.90;;;;;;5030873;28;20484;-42
2022/12/06 01:42:48;;;;;;;12.02;3.80;;;5.80;99.90;;;;;;5030823;28;20028;-43
2022/12/06 01:45:14;;;;;;;7.80;4.00;;;5.00;99.90;;;;;;5030723;28;20396;-42
2022/12/06 01:47:42;;;;;;;8.82;3.35;;;5.50;99.90;;;;;;5030925;28;20060;-43
2022/12/06 01:50:29;;;;;;;9.70;3.72;;;6.70;99.90;;;;;;5030491;28;20025;-49
2022/12/06 01:53:03;;;;;;;8.85;3.58;;;4.00;99.90;;;;;;5030538;28;20037;-41
2022/12/06 01:55:32;;;;;;;8.45;3.42;;;5.20;99.90;;;;;;5030520;28;20037;-43
2022/12/06 01:58:03;;;;;;;9.57;3.58;;;5.20;99.90;;;;;;5030733;28;20028;-43
2022/12/06 02:00:28;;;;;;;10.60;3.75;;;5.40;99.90;;;;;;5017544;28;20041;-45
2022/12/06 02:02:59;;;;;;;9.68;3.60;;;5.00;99.90;;;;;;5029412;28;20035;-48
2022/12/06 02:05:25;;;;;;;12.23;3.88;;;5.00;99.90;;;;;;5029234;28;20024;-42
2022/12/06 02:07:52;;;;;;;9.32;4.40;;;5.30;99.90;;;;;;5030800;28;20033;-40
2022/12/06 02:10:18;;;;;;;9.73;4.05;;;4.80;99.90;;;;;;5030482;28;20096;-45
2022/12/06 02:12:45;;;;;;;7.68;3.42;;;5.20;99.90;;;;;;5030530;28;20116;-44
2022/12/06 02:15:10;;;;;;;8.93;3.95;;;5.50;99.90;;;;;;5030074;28;20013;-42
2022/12/06 02:17:51;;;;;;;9.38;3.97;;;4.80;99.90;;;;;;5030657;28;20120;-40
2022/12/06 02:20:22;;;;;;;10.10;3.78;;;4.80;99.90;;;;;;5030379;28;20489;-44
2022/12/06 02:23:11;;;;;;;7.95;3.75;;;4.90;99.90;;;;;;5030497;28;20040;-43
2022/12/06 02:26:14;;;;;;;11.85;3.72;;;4.80;99.90;;;;;;5030135;28;20025;-40
2022/12/06 02:28:57;;;;;;;8.27;3.63;;;5.00;99.90;;;;;;5030084;28;20065;-40
2022/12/06 02:31:45;;;;;;;9.75;3.80;;;6.10;99.90;;;;;;5030247;28;20029;-40
2022/12/06 02:34:16;;;;;;;10.35;4.32;;;4.40;99.90;;;;;;5030240;28;20111;-40
2022/12/06 02:36:46;;;;;;;13.07;3.90;;;5.10;99.90;;;;;;5030349;28;20065;-39
2022/12/06 02:39:23;;;;;;;7.80;3.92;;;6.00;99.90;;;;;;5030235;28;20102;-43
2022/12/06 02:41:55;;;;;;;8.07;3.72;;;4.00;99.90;;;;;;5030288;28;20032;-42
2022/12/06 02:44:41;;;;;;;9.15;3.15;;;4.70;99.90;;;;;;5029788;28;20036;-45
2022/12/06 02:47:10;;;;;;;8.07;3.67;;;4.50;99.90;;;;;;5026603;28;20179;-42
2022/12/06 02:49:43;;;;;;;8.43;3.35;;;4.50;99.90;;;;;;5032358;28;20049;-43
2022/12/06 02:52:10;;;;;;;8.18;3.60;;;4.50;99.90;;;;;;5032790;28;20030;-42
2022/12/06 02:54:36;;;;;;;11.90;4.18;;;5.70;99.90;;;;;;5033866;28;20030;-40
2022/12/06 02:57:02;;;;;;;7.88;3.38;;;4.50;99.90;;;;;;5033697;28;20056;-48
2022/12/06 02:59:28;;;;;;;10.18;3.75;;;6.00;99.90;;;;;;5033692;28;20120;-39
2022/12/06 03:01:58;;;;;;;5.90;3.33;;;5.90;99.90;;;;;;5033739;28;20062;-47
2022/12/06 03:04:59;;;;;;;8.73;3.40;;;5.10;99.90;;;;;;5033404;28;20029;-40
2022/12/06 03:07:38;;;;;;;14.18;3.90;;;4.60;99.90;;;;;;5028293;28;20884;-50
2022/12/06 03:10:21;;;;;;;11.10;3.70;;;4.20;99.90;;;;;;5033763;28;20462;-41
2022/12/06 03:13:14;;;;;;;10.45;3.42;;;4.00;99.90;;;;;;5033529;28;20033;-43
2022/12/06 03:15:57;;;;;;;8.13;3.47;;;4.70;99.90;;;;;;5033097;28;20021;-45
2022/12/06 03:18:48;;;;;;;10.40;3.47;;;4.00;99.90;;;;;;5033409;28;20068;-53
2022/12/06 03:21:26;;;;;;;8.95;3.42;;;4.00;99.90;;;;;;5033461;28;20045;-48
2022/12/06 03:23:53;;;;;;;10.68;3.90;;;5.30;99.90;;;;;;5033125;28;20526;-48
2022/12/06 03:26:25;;;;;;;8.32;3.47;;;3.90;99.90;;;;;;5033472;28;20079;-51
2022/12/06 03:28:55;;;;;;;9.02;3.55;;;4.30;99.90;;;;;;5033213;28;20037;-50
2022/12/06 03:31:23;;;;;;;9.10;3.88;;;3.90;99.90;;;;;;5033565;28;20060;-41
2022/12/06 03:33:56;;;;;;;9.80;3.50;;;3.90;99.90;;;;;;5033076;28;20033;-47
2022/12/06 03:36:24;;;;;;;10.93;3.88;;;4.40;99.90;;;;;;5033250;28;20041;-40
2022/12/06 03:39:12;;;;;;;11.40;3.58;;;3.80;99.90;;;;;;5032951;28;20029;-48
2022/12/06 03:41:47;;;;;;;13.13;3.42;;;3.80;99.90;;;;;;5033267;28;20072;-54
2022/12/06 03:44:12;;;;;;;9.45;3.90;;;3.80;99.90;;;;;;5032869;28;20037;-57
2022/12/06 03:46:44;;;;;;;18.65;5.88;;;3.80;99.90;;;;;;5032547;28;20095;-59
2022/12/06 03:49:16;;;;;;;11.20;3.90;;;3.00;99.90;;;;;;5032781;28;20075;-39
2022/12/06 03:51:43;;;;;;;12.32;4.20;;;1.80;99.90;;;;;;5032848;28;20362;-39
2022/12/06 03:54:09;;;;;;;10.07;3.83;;;3.90;99.90;;;;;;5033005;28;20032;-44
2022/12/06 03:56:37;;;;;;;10.73;3.88;;;4.00;99.90;;;;;;5032620;28;20049;-40
2022/12/06 03:59:07;;;;;;;10.38;4.03;;;5.40;99.90;;;;;;5032414;28;20040;-40
2022/12/06 04:01:33;;;;;;;8.02;3.60;;;3.80;99.90;;;;;;5032437;28;20037;-45
2022/12/06 04:03:59;;;;;;;13.05;4.60;;;;;;;;;;5032566;28;20022;-41
2022/12/06 04:06:25;;;;;;;14.20;4.50;;;3.70;99.90;;;;;;5032466;28;20029;-42
2022/12/06 04:08:51;;;;;;;14.20;4.18;;;;;;;;;;5032333;28;20021;-40
2022/12/06 04:11:17;;;;;;;13.32;4.15;;;3.40;99.90;;;;;;5032169;28;20481;-42
2022/12/06 04:13:43;;;;;;;11.45;3.97;;;4.00;99.90;;;;;;5032308;28;20101;-39
2022/12/06 04:18:54;;;;;;;10.23;4.18;;;3.80;99.90;;;;;;5032167;28;20111;-44
2022/12/06 04:23:58;;;;;;;11.02;3.55;;;3.90;99.90;;;;;;5032276;28;20442;-39
2022/12/06 04:26:24;;;;;;;12.02;4.32;;;3.70;99.90;;;;;;5032281;28;20492;-52
2022/12/06 04:39:52;;;;;;;9.82;4.32;;;3.70;99.90;;;;;;5032049;28;20093;-40
2022/12/06 04:45:04;;;;;;;11.55;3.58;;;3.60;99.90;;;;;;5031944;28;20032;-42
2022/12/06 04:47:30;;;;;;;7.25;3.30;;;1.20;99.90;;;;;;5031621;28;20516;-50
2022/12/06 04:49:56;;;;;;;10.68;3.63;;;;;;;;;;5031679;28;20036;-41
2022/12/06 04:52:22;;;;;;;9.68;3.33;;;;;;;;;;5031712;28;20033;-43
2022/12/06 04:54:48;;;;;;;10.48;3.35;;;3.60;99.90;;;;;;5031499;28;20382;-44
2022/12/06 04:57:15;;;;;;;11.40;3.55;;;3.50;99.90;;;;;;5031455;28;20041;-42
2022/12/06 04:59:43;;;;;;;11.55;3.83;;;3.50;99.90;;;;;;5031407;28;20124;-40
2022/12/06 05:02:13;;;;;;;14.52;3.97;;;4.10;99.90;;;;;;5031605;28;20021;-46
2022/12/06 05:04:39;;;;;;;9.25;3.75;;;2.00;99.90;;;;;;5031706;28;20131;-40
2022/12/06 05:07:05;;;;;;;9.27;3.53;;;3.60;99.90;;;;;;5031480;28;20108;-40
2022/12/06 05:09:31;;;;;;;12.77;4.00;;;3.60;99.90;;;;;;5029462;28;20090;-40
2022/12/06 05:11:56;;;;;;;10.82;3.33;;;3.60;99.90;;;;;;5030496;28;20044;-40
2022/12/06 05:14:22;;;;;;;9.88;3.55;;;5.00;99.90;;;;;;5031269;28;20028;-43
2022/12/06 05:16:47;;;;;;;10.73;3.63;;;3.60;99.90;;;;;;5030995;28;20069;-44
2022/12/06 05:19:13;;;;;;;12.55;3.83;;;;;;;;;;5030781;28;20064;-50
2022/12/06 05:21:39;;;;;;;10.55;3.60;;;3.80;99.90;;;;;;5030823;28;20115;-44
2022/12/06 05:24:05;;;;;;;9.38;3.30;;;1.70;99.90;;;;;;5031064;28;20053;-44
2022/12/06 05:26:31;;;;;;;9.73;3.70;;;;;;;;;;5031140;28;20076;-40
2022/12/06 05:28:57;;;;;;;12.38;3.40;;;3.50;99.90;;;;;;5030754;28;20084;-40
2022/12/06 05:31:24;;;;;;;8.60;3.50;;;4.70;99.90;;;;;;5030933;28;20374;-46
2022/12/06 05:33:50;;;;;;;12.45;3.60;;;3.50;99.90;;;;;;5030647;28;20064;-40
2022/12/06 05:36:22;;;;;;;8.68;3.08;;;2.50;99.90;;;;;;5055594;28;20076;-45
2022/12/06 05:38:49;;;;;;;9.48;2.83;;;3.60;99.90;;;;;;5026239;28;20033;-53
2022/12/06 05:41:15;;;;;;;7.95;3.00;;;3.70;99.90;;;;;;5029004;28;20495;-40
2022/12/06 05:43:41;;;;;;;7.80;2.70;;;3.70;99.90;;;;;;5030740;28;20100;-41
2022/12/06 05:46:07;;;;;;;9.48;3.13;;;2.00;99.90;;;;;;5030762;28;20061;-45
2022/12/06 05:48:33;;;;;;;6.88;2.95;;;3.20;99.90;;;;;;5031057;28;20028;-51
2022/12/06 05:50:58;;;;;;;8.88;3.65;;;3.20;99.90;;;;;;5030932;28;20420;-40
2022/12/06 05:53:24;;;;;;;11.10;3.15;;;3.20;99.90;;;;;;5030718;28;20507;-48
2022/12/06 05:55:50;;;;;;;9.80;3.20;;;3.50;99.90;;;;;;5030554;28;20056;-49
2022/12/06 05:58:17;;;;;;;8.70;3.10;;;3.40;99.90;;;;;;5029258;28;20021;-48
2022/12/06 06:00:47;;;;;;;20.48;3.92;;;3.20;99.90;;;;;;5030597;28;20060;-43
2022/12/06 06:03:14;;;;;;;9.52;3.13;;;3.90;99.90;;;;;;5030603;28;20053;-40
2022/12/06 06:05:50;;;;;;;8.05;2.90;;;3.00;99.90;;;;;;5030835;28;20026;-40
2022/12/06 06:08:16;;;;;;;6.88;2.95;;;3.00;99.90;;;;;;5030578;28;20487;-46
2022/12/06 06:10:42;;;;;;;8.75;3.00;;;4.00;99.90;;;;;;5030323;28;20068;-44
2022/12/06 06:13:08;;;;;;;7.68;2.88;;;2.10;99.90;;;;;;5030566;28;20026;-45
2022/12/06 06:15:34;;;;;;;8.68;3.20;;;3.00;99.90;;;;;;5030597;28;20116;-50
2022/12/06 06:17:59;;;;;;;9.93;3.13;;;2.90;99.90;;;;;;5030604;28;20380;-47
2022/12/06 06:20:25;;;;;;;8.18;3.60;;;1.90;99.90;;;;;;5030232;28;20120;-53
2022/12/06 06:22:51;;;;;;;7.88;3.03;;;2.80;99.90;;;;;;5032861;28;20022;-45
2022/12/06 06:25:16;;;;;;;12.00;3.50;;;2.90;99.90;;;;;;5034158;28;20029;-52
2022/12/06 06:27:42;;;;;;;7.65;3.10;;;2.90;99.90;;;;;;5034375;28;20029;-41
2022/12/06 06:30:10;;;;;;;9.38;3.08;;;2.90;99.90;;;;;;5034372;28;20136;-41
2022/12/06 06:32:36;;;;;;;9.98;3.95;;;2.90;99.90;;;;;;5034231;28;20099;-40
2022/12/06 06:35:03;;;;;;;7.00;3.17;;;2.80;99.90;;;;;;5034195;28;20514;-40
2022/12/06 06:37:29;;;;;;;8.60;3.58;;;2.80;99.90;;;;;;5034092;28;20392;-41
2022/12/06 06:39:55;;;;;;;6.22;2.88;;;2.80;99.90;;;;;;5033832;28;20033;-40
2022/12/06 06:42:20;;;;;;;13.20;3.35;;;3.80;99.90;;;;;;5034073;28;20072;-42
2022/12/06 06:44:46;;;;;;;9.43;3.45;;;;;;;;;;5034150;28;20456;-40
2022/12/06 06:47:12;;;;;;;7.05;3.15;;;2.30;99.90;;;;;;5034203;28;20022;-44
2022/12/06 06:49:38;;;;;;;11.27;3.42;;;3.30;99.90;;;;;;5032759;28;20416;-40
2022/12/06 06:52:04;;;;;;;6.40;2.88;;;0.40;99.90;;;;;;5034067;28;20419;-43
2022/12/06 06:54:29;;;;;;;10.10;3.78;;;4.10;99.90;;;;;;5032824;28;20037;-40
2022/12/06 06:56:55;;;;;;;9.82;3.38;;;3.30;99.90;;;;;;5033859;28;20427;-44
2022/12/06 06:59:23;;;;;;;9.02;3.42;;;3.30;99.90;;;;;;5034103;28;20030;-40
2022/12/06 07:01:48;;;;;;;10.38;3.40;;;1.30;99.90;;;;;;5033861;28;20053;-41
2022/12/06 07:04:14;;;;;;;14.68;4.10;;;2.90;99.90;;;;;;5034084;28;20159;-42
2022/12/06 07:06:40;;;;;;;10.18;4.45;;;;;;;;;;5033956;28;20461;-45
2022/12/06 07:09:06;;;;;;;6.50;3.40;;;2.90;99.90;;;;;;5033314;28;20018;-49
2022/12/06 07:11:31;;;;;;;8.18;3.78;;;3.50;99.90;;;;;;5033602;28;20380;-45
2022/12/06 07:13:57;;;;;;;5.47;3.28;;;2.50;99.90;;;;;;5033416;28;20120;-39
2022/12/06 07:16:23;;;;;;;8.90;3.42;;;2.50;99.90;;;;;;5033554;28;20034;-48
2022/12/06 07:18:49;;;;;;;11.10;3.78;;;;;;;;;;5033033;28;20358;-40
2022/12/06 07:21:15;;;;;;;6.10;3.08;;;2.90;99.90;;;;;;5033438;28;20033;-44
2022/12/06 07:23:41;;;;;;;8.85;3.58;;;3.30;99.90;;;;;;5033218;28;20021;-52
2022/12/06 07:26:13;;;;;;;7.18;3.30;;;0.50;99.90;;;;;;5033622;28;20389;-45
2022/12/06 07:28:42;;;;;;;10.27;3.70;;;2.50;99.90;;;;;;5033192;28;20483;-43
2022/12/06 07:31:14;;;;;;;6.72;3.05;;;3.20;99.90;;;;;;5031111;28;20036;-47
2022/12/06 07:33:41;;;;;;;8.02;3.33;;;2.20;99.90;;;;;;5032301;28;20605;-45
2022/12/06 07:36:08;;;;;;;7.68;3.13;;;2.40;99.90;;;;;;5032856;28;20397;-43
2022/12/06 07:38:33;;;;;;;8.98;3.28;;;1.90;99.90;;;;;;5032507;28;20107;-46
2022/12/06 07:46:33;;;;;;;8.70;3.50;;;3.30;99.90;;;;;;5032814;28;20087;-44
2022/12/06 07:48:59;;;;;;;7.30;3.20;;;;;;;;;;5033162;28;20025;-45
2022/12/06 07:51:24;;;;;;;11.63;3.53;;;0.90;99.90;;;;;;5032707;28;20461;-40
2022/12/06 07:53:50;;;;;;;13.15;3.65;;;3.00;99.90;;;;;;5032751;28;20018;-42
2022/12/06 07:56:16;;;;;;;8.77;3.72;;;2.80;99.90;;;;;;5032508;28;20381;-39
2022/12/06 07:58:41;;;;;;;9.52;3.45;;;3.10;99.90;;;;;;5018839;28;20056;-45
2022/12/06 08:01:07;;;;;;;12.25;4.03;;;2.90;99.90;;;;;;5032554;28;20072;-43
2022/12/06 08:03:32;;;;;;;8.80;3.20;;;2.90;99.90;;;;;;5032507;28;20024;-47
2022/12/06 08:05:58;;;;;;;7.80;3.60;;;2.90;99.90;;;;;;5032630;28;20068;-41
2022/12/06 08:08:24;;;;;;;13.18;3.45;;;;;;;;;;5032001;28;20026;-42
2022/12/06 08:10:50;;;;;;;8.32;3.42;;;;;;;;;;5032200;28;20062;-45
2022/12/06 08:13:16;;;;;;;8.70;3.78;;;3.70;99.90;;;;;;5032432;28;20388;-45
2022/12/06 08:15:41;;;;;;;9.73;3.72;;;4.30;99.90;;;;;;5030917;28;20056;-40
2022/12/06 08:18:07;;;;;;;7.03;3.50;;;;;;;;;;5032305;28;20072;-41
2022/12/06 08:20:33;;;;;;;8.88;3.40;;;3.30;99.90;;;;;;5032052;28;20033;-40
2022/12/06 08:22:59;;;;;;;8.50;3.40;;;;;;;;;;5032335;28;20033;-44
2022/12/06 08:25:24;;;;;;;6.50;3.05;;;3.20;99.90;;;;;;5032167;28;20094;-51
2022/12/06 08:27:50;;;;;;;8.32;3.50;;;4.20;99.90;;;;;;5029959;28;20043;-43
2022/12/06 08:30:16;;;;;;;11.40;3.28;;;;;;;;;;5026155;28;20056;-41
2022/12/06 08:32:42;;;;;;;6.95;2.90;;;4.70;99.90;;;;;;5027840;28;20017;-45
2022/12/06 08:35:07;;;;;;;10.35;3.10;;;1.80;99.90;;;;;;5031787;28;20303;-42
2022/12/06 08:37:33;;;;;;;12.27;2.83;;;6.60;99.90;;;;;;5031040;28;20032;-43
2022/12/06 08:39:59;;;;;;;13.68;3.22;;;6.10;99.90;;;;;;5062585;28;20099;-44
2022/12/06 08:42:25;;;;;;;6.97;2.72;;;5.50;99.90;;;;;;5031684;28;20426;-43
2022/12/06 08:44:53;;;;;;;8.85;2.90;;;7.60;99.90;;;;;;5027910;28;20104;-42
2022/12/06 08:47:19;;;;;;;4.65;1.98;;;8.60;99.90;;;;;;5021758;28;20052;-48
2022/12/06 08:49:45;;;;;;;6.65;1.75;;;9.80;99.90;;;;;;5031491;28;20108;-45
2022/12/06 08:52:11;;;;;;;6.97;2.13;;;10.50;99.90;;;;;;5031820;28;20060;-43
2022/12/06 08:54:38;;;;;;;6.72;1.70;;;10.40;99.90;;;;;;5031271;28;20391;-40
2022/12/06 08:57:04;;;;;;;5.63;2.47;;;9.70;99.90;;;;;;5031164;28;20056;-47
2022/12/06 08:59:29;;;;;;;6.15;2.05;;;8.90;99.90;;;;;;5031232;28;20116;-47
2022/12/06 09:01:55;;;;;;;3.72;1.40;;;8.10;99.90;;;;;;5031207;28;20089;-44
2022/12/06 09:04:22;;;;;;;3.40;1.40;;;7.50;99.90;;;;;;5025004;28;20422;-40
2022/12/06 09:06:47;;;;;;;7.03;2.05;;;7.10;99.90;;;;;;5014208;28;20030;-40
2022/12/06 09:09:15;;;;;;;3.83;1.70;;;6.90;99.90;;;;;;5020072;28;20148;-47
2022/12/06 09:11:41;;;;;;;5.85;1.70;;;5.80;99.90;;;;;;5024830;28;20050;-43
2022/12/06 09:14:08;;;;;;;7.50;1.85;;;6.40;99.90;;;;;;5028581;28;20033;-45
2022/12/06 09:16:34;;;;;;;7.03;1.55;;;6.50;99.90;;;;;;5035173;28;20025;-41
2022/12/06 09:19:00;;;;;;;6.07;1.60;;;6.30;99.90;;;;;;5032790;28;20037;-40
2022/12/06 09:21:30;;;;;;;4.97;1.70;;;6.30;99.90;;;;;;5073557;28;20035;-43
2022/12/06 09:23:56;;;;;;;7.20;1.70;;;6.30;99.90;;;;;;5037016;28;20092;-44
2022/12/06 09:26:23;;;;;;;5.32;1.50;;;6.40;99.90;;;;;;5035671;28;20026;-46
2022/12/06 09:28:49;;;;;;;5.25;1.95;;;5.60;99.90;;;;;;5033678;28;20051;-41
2022/12/06 09:31:15;;;;;;;4.03;1.60;;;6.30;99.90;;;;;;5023984;28;20055;-45
2022/12/06 09:33:41;;;;;;;5.82;1.88;;;6.00;99.90;;;;;;5025155;28;20021;-40
2022/12/06 09:36:13;;;;;;;5.80;2.03;;;6.30;99.90;;;;;;5028242;28;20083;-40
2022/12/06 09:38:41;;;;;;;4.07;1.80;;;6.40;99.90;;;;;;5031978;28;20037;-41
2022/12/06 09:41:25;;;;;;;5.25;1.73;;;6.60;99.90;;;;;;5034062;28;20091;-47
2022/12/06 09:44:32;;;;;;;5.72;1.80;;;5.90;99.90;;;;;;5030442;28;20439;-42
2022/12/06 09:47:18;;;;;;;4.55;1.85;;;6.40;99.90;;;;;;5031107;28;20057;-40
2022/12/06 09:50:01;;;;;;;4.20;1.50;;;6.30;99.90;;;;;;5030021;28;20041;-41
2022/12/06 09:52:58;;;;;;;7.88;1.85;;;6.50;99.90;;;;;;5024128;28;20030;-47
2022/12/06 09:55:48;;;;;;;6.25;1.70;;;6.50;99.90;;;;;;5017851;28;20068;-43
2022/12/06 09:58:35;;;;;;;7.47;1.80;;;6.50;99.90;;;;;;5017995;28;20459;-43
2022/12/06 10:01:30;;;;;;;5.10;1.58;;;9.50;99.90;;;;;;5019944;28;20403;-42
2022/12/06 10:04:08;;;;;;;8.30;1.67;;;9.60;99.90;;;;;;5030707;28;20207;-40
2022/12/06 10:06:43;;;;;;;5.45;1.73;;;12.30;99.90;;;;;;5026910;28;20377;-40
2022/12/06 10:09:20;;;;;;;3.65;1.42;;;11.90;99.90;;;;;;5036723;28;20021;-41
2022/12/06 10:12:05;;;;;;;4.38;1.20;;;13.70;98.90;;;;;;5023722;28;20034;-41
2022/12/06 10:14:45;;;;;;;4.45;1.65;;;15.60;94.90;;;;;;5023712;28;20343;-46
2022/12/06 10:17:34;;;;;;;5.22;1.30;;;15.60;90.00;;;;;;5016905;28;20137;-51
2022/12/06 10:20:08;;;;;;;5.93;1.58;;;14.60;90.30;;;;;;5026379;28;20038;-44
2022/12/06 10:22:53;;;;;;;4.55;1.33;;;13.20;91.20;;;;;;5018744;28;20037;-44
2022/12/06 10:25:41;;;;;;;4.90;1.52;;;11.80;92.20;;;;;;5019788;28;20060;-50
2022/12/06 10:28:17;;;;;;;8.27;1.52;;;10.80;95.30;;;;;;5027909;28;20504;-45
2022/12/06 10:30:57;;;;;;;5.65;1.40;;;10.20;97.90;;;;;;5030145;28;20091;-50
2022/12/06 10:33:54;;;;;;;3.67;1.10;;;11.90;96.40;;;;;;5017400;28;20048;-41
2022/12/06 10:36:36;;;;;;;3.90;1.55;;;13.90;93.90;;;;;;5025841;28;20087;-41
2022/12/06 10:39:21;;;;;;;5.00;1.25;;;16.70;88.70;;;;;;5014538;28;20026;-41
2022/12/06 10:41:58;;;;;;;3.55;1.25;;;18.90;72.90;;;;;;5025802;28;20100;-46
2022/12/06 10:44:26;;;;;;;3.88;1.33;;;18.80;74.90;;;;;;5029983;28;20095;-54
2022/12/06 10:47:06;;;;;;;2.72;1.20;;;20.40;73.30;;;;;;5068734;28;20033;-42
2022/12/06 10:49:39;;;;;;;5.45;1.63;;;20.70;68.40;;;;;;5031439;28;20025;-42
2022/12/06 10:52:17;;;;;;;2.15;0.95;;;20.10;63.50;;;;;;5022423;28;20476;-47
2022/12/06 10:54:54;;;;;;;2.60;1.10;;;20.40;64.80;;;;;;5030035;28;20026;-46
2022/12/06 10:57:29;;;;;;;3.63;1.45;;;21.00;65.30;;;;;;5029268;28;20759;-48
2022/12/06 11:00:04;;;;;;;4.68;1.85;;;23.00;62.30;;;;;;5032319;28;20076;-42
2022/12/06 11:02:57;;;;;;;3.80;1.42;;;24.00;55.50;;;;;;5028188;28;20057;-44
2022/12/06 11:05:46;;;;;;;3.75;1.58;;;24.80;55.60;;;;;;5029339;28;21153;-46
2022/12/06 11:08:36;;;;;;;3.50;1.33;;;24.90;52.90;;;;;;5025389;28;20503;-49
2022/12/06 11:11:04;;;;;;;2.72;1.20;;;25.80;52.40;;;;;;5027642;28;20053;-52
2022/12/06 11:13:34;;;;;;;4.28;1.50;;;26.20;49.20;;;;;;5037549;28;20443;-48
2022/12/06 11:16:04;;;;;;;3.55;1.42;;;26.30;47.30;;;;;;5033108;28;20029;-45
2022/12/06 11:18:32;;;;;;;5.97;1.67;;;23.30;48.20;;;;;;5032734;28;20518;-48
2022/12/06 11:21:04;;;;;;;8.88;2.15;;;18.80;56.00;;;;;;5033236;28;20107;-41
2022/12/06 11:23:44;;;;;;;5.88;1.80;;;18.50;57.40;;;;;;5032611;28;20029;-44
2022/12/06 11:26:18;;;;;;;3.63;1.52;;;17.40;59.90;;;;;;5043926;28;20115;-46
2022/12/06 11:28:54;;;;;;;5.22;1.67;;;17.30;63.00;;;;;;5031785;28;20485;-45
2022/12/06 11:31:41;;;;;;;5.38;1.50;;;17.50;63.50;;;;;;5032024;28;20052;-50
2022/12/06 11:34:22;;;;;;;3.40;1.30;;;18.60;62.50;;;;;;5032786;28;20420;-45
2022/12/06 11:36:53;;;;;;;4.35;1.67;;;19.70;59.10;;;;;;5031917;28;20034;-44
2022/12/06 11:39:20;;;;;;;5.30;1.45;;;19.50;57.00;;;;;;5040837;28;20029;-39
2022/12/06 11:41:49;;;;;;;4.45;1.60;;;18.00;58.80;;;;;;5038778;28;20071;-40
2022/12/06 11:44:24;;;;;;;6.47;1.80;;;16.00;61.80;;;;;;5031406;28;20400;-43
2022/12/06 11:46:56;;;;;;;4.22;1.50;;;14.20;67.00;;;;;;5033558;28;20038;-43
2022/12/06 11:49:37;;;;;;;4.15;1.75;;;12.70;71.10;;;;;;5039637;28;20059;-49
2022/12/06 11:52:22;;;;;;;7.88;1.80;;;12.90;71.90;;;;;;5037651;28;20564;-46
2022/12/06 11:54:54;;;;;;;5.35;1.60;;;13.10;73.80;;;;;;5035562;28;20041;-51
2022/12/06 11:57:23;;;;;;;3.65;1.40;;;14.30;72.70;;;;;;5025082;28;20049;-52
2022/12/06 12:00:16;;;;;;;6.18;1.50;;;18.20;62.90;;;;;;5036142;28;20128;-50
2022/12/06 12:02:43;;;;;;;7.38;2.70;;;18.20;64.70;;;;;;5042844;28;20044;-47
2022/12/06 12:05:15;;;;;;;3.78;1.30;;;21.00;59.30;;;;;;5045158;28;20083;-49
2022/12/06 12:07:44;;;;;;;7.32;1.63;;;21.80;55.00;;;;;;5044678;28;20037;-56
2022/12/06 12:10:37;;;;;;;3.50;1.40;;;21.00;53.90;;;;;;5045572;28;20361;-49
2022/12/06 12:16:14;;;;;;;4.32;1.40;;;21.60;53.60;;;;;;5030452;28;20037;-43
2022/12/06 12:18:49;;;;;;;5.78;1.42;;;20.90;54.30;;;;;;5031402;28;20033;-43
2022/12/06 12:21:15;;;;;;;4.10;1.85;;;19.20;55.00;;;;;;5031934;28;20049;-43
2022/12/06 12:23:46;;;;;;;4.10;1.85;;;16.90;60.00;;;;;;5043443;28;20022;-52
2022/12/06 12:26:14;;;;;;;7.50;1.77;;;15.20;64.00;;;;;;5031782;28;20468;-49
2022/12/06 12:28:42;;;;;;;5.03;1.80;;;14.50;67.90;;;;;;5039303;28;20031;-45
2022/12/06 12:31:20;;;;;;;6.10;1.90;;;13.80;68.80;;;;;;5033489;28;20164;-46
2022/12/06 12:33:47;;;;;;;6.57;2.88;;;13.30;71.50;;;;;;5040591;28;20025;-45
2022/12/06 12:36:28;;;;;;;4.47;1.55;;;12.90;73.20;;;;;;5045336;28;20033;-43
2022/12/06 12:38:59;;;;;;;4.60;1.50;;;12.70;73.10;;;;;;5047873;28;20392;-53
2022/12/06 12:41:45;;;;;;;2.67;1.42;;;12.80;76.20;;;;;;5041476;28;20025;-50
2022/12/06 12:44:22;;;;;;;3.72;1.77;;;12.90;75.40;;;;;;5041572;28;20037;-41
2022/12/06 12:46:53;;;;;;;6.70;1.80;;;13.00;75.50;;;;;;5036730;28;20036;-49
2022/12/06 12:49:20;;;;;;;3.60;1.25;;;13.20;72.80;;;;;;5040914;28;20056;-42
2022/12/06 12:51:45;;;;;;;2.55;1.48;;;13.10;73.00;;;;;;5037797;28;20025;-44
2022/12/06 12:54:22;;;;;;;4.57;1.88;;;13.60;76.10;;;;;;5032780;28;20025;-52
2022/12/06 12:56:48;;;;;;;2.55;1.10;;;15.00;71.50;;;;;;5047473;28;20048;-42
2022/12/06 12:59:20;;;;;;;4.85;1.40;;;16.50;67.20;;;;;;5042992;28;20119;-45
2022/12/06 13:01:45;;;;;;;2.83;1.27;;;16.60;64.60;;;;;;5046487;28;20052;-50
2022/12/06 13:04:40;;;;;;;6.55;1.30;;;17.10;65.20;;;;;;5039870;28;20064;-45
2022/12/06 13:07:46;;;;;;;3.17;1.20;;;16.90;61.80;;;;;;5032709;28;20033;-49
2022/12/06 13:10:36;;;;;;;4.88;1.55;;;16.20;64.10;;;;;;5023227;28;20037;-44
2022/12/06 13:13:13;;;;;;;3.70;1.23;;;16.30;64.80;;;;;;5029343;28;20026;-44
2022/12/06 13:15:46;;;;;;;2.85;1.42;;;17.40;62.30;;;;;;5028567;28;20171;-52
2022/12/06 13:18:27;;;;;;;7.03;1.52;;;17.20;61.50;;;;;;5028366;28;20053;-42
2022/12/06 13:20:56;;;;;;;3.75;1.60;;;17.40;61.10;;;;;;5029354;28;20048;-51
2022/12/06 13:23:26;;;;;;;4.95;1.60;;;17.20;60.80;;;;;;5029666;28;20020;-43
2022/12/06 13:26:00;;;;;;;2.80;1.17;;;18.20;61.40;;;;;;5030029;28;20107;-46
2022/12/06 13:28:33;;;;;;;8.93;1.73;;;18.50;59.30;;;;;;5034001;28;20434;-44
2022/12/06 13:31:17;;;;;;;3.72;1.50;;;18.90;58.70;;;;;;5033758;28;20513;-47
2022/12/06 13:33:54;;;;;;;4.95;1.58;;;18.90;57.10;;;;;;5030976;28;20108;-46
2022/12/06 13:36:23;;;;;;;3.40;1.23;;;17.70;58.40;;;;;;5030671;28;20024;-47
2022/12/06 13:38:48;;;;;;;3.65;1.40;;;16.90;59.10;;;;;;5022640;28;20030;-40
2022/12/06 13:44:38;;;;;;;3.75;1.38;;;17.20;59.50;;;;;;5030610;28;20448;-45
2022/12/06 13:47:26;;;;;;;2.78;1.00;;;17.30;59.30;;;;;;5030608;28;20384;-44